createdAt,value
2023-04-18T00:00:46.137Z,13.68
2023-04-18T00:03:16.625Z,14.63
2023-04-18T00:05:44.147Z,14.00
2023-04-18T00:08:11.668Z,14.18
2023-04-18T00:10:38.913Z,13.10
2023-04-18T00:13:05.934Z,14.13
2023-04-18T00:15:35.506Z,13.85
2023-04-18T00:18:06.187Z,14.50
2023-04-18T00:20:33.616Z,13.48
2023-04-18T00:23:01.807Z,13.75
2023-04-18T00:25:29.213Z,14.32
2023-04-18T00:27:56.208Z,13.90
2023-04-18T00:30:24.666Z,12.95
2023-04-18T00:32:51.821Z,13.30
2023-04-18T00:35:19.548Z,12.88
2023-04-18T00:37:46.593Z,13.30
2023-04-18T00:40:16.106Z,13.45
2023-04-18T00:42:43.314Z,13.23
2023-04-18T00:45:10.851Z,13.70
2023-04-18T00:47:37.863Z,13.50
2023-04-18T00:50:06.151Z,13.98
2023-04-18T00:52:35.866Z,13.82
2023-04-18T00:55:07.028Z,13.48
2023-04-18T00:57:34.710Z,12.98
2023-04-18T01:00:10.063Z,13.33
2023-04-18T01:02:39.575Z,14.32
2023-04-18T01:05:07.997Z,13.10
2023-04-18T01:07:38.047Z,14.85
2023-04-18T01:10:05.931Z,14.00
2023-04-18T01:12:32.949Z,13.10
2023-04-18T01:15:00.757Z,15.02
2023-04-18T01:17:30.604Z,14.88
2023-04-18T01:19:57.953Z,15.02
2023-04-18T01:22:26.928Z,15.75
2023-04-18T01:24:54.228Z,14.40
2023-04-18T01:27:21.307Z,14.43
2023-04-18T01:29:48.604Z,14.60
2023-04-18T01:32:18.052Z,14.10
2023-04-18T01:34:47.404Z,14.05
2023-04-18T01:37:14.746Z,14.00
2023-04-18T01:39:42.118Z,13.88
2023-04-18T01:42:09.139Z,14.27
2023-04-18T01:44:37.912Z,15.32
2023-04-18T01:47:05.952Z,14.85
2023-04-18T01:49:33.445Z,14.23
2023-04-18T01:52:00.421Z,14.10
2023-04-18T01:54:27.742Z,14.88
2023-04-18T01:56:54.774Z,14.63
2023-04-18T01:59:22.726Z,15.27
2023-04-18T02:01:49.807Z,14.77
2023-04-18T02:04:18.218Z,15.20
2023-04-18T02:06:46.905Z,14.18
2023-04-18T02:09:14.178Z,15.38
2023-04-18T02:11:43.465Z,14.43
2023-04-18T02:14:10.884Z,15.43
2023-04-18T02:16:38.907Z,14.48
2023-04-18T02:19:06.369Z,15.25
2023-04-18T02:21:34.526Z,15.23
2023-04-18T02:24:01.816Z,14.70
2023-04-18T02:26:28.888Z,14.63
2023-04-18T02:28:58.871Z,15.68
2023-04-18T02:31:25.979Z,13.90
2023-04-18T02:33:53.297Z,14.50
2023-04-18T02:36:22.169Z,15.25
2023-04-18T02:38:49.607Z,14.90
2023-04-18T02:41:20.907Z,15.20
2023-04-18T02:43:48.398Z,15.40
2023-04-18T02:46:17.566Z,15.57
2023-04-18T02:48:47.818Z,15.30
2023-04-18T02:51:16.443Z,15.45
2023-04-18T02:53:43.724Z,15.77
2023-04-18T02:56:11.774Z,15.93
2023-04-18T02:58:57.725Z,15.27
2023-04-18T03:01:59.888Z,15.25
2023-04-18T03:04:27.469Z,15.40
2023-04-18T03:06:59.398Z,16.05
2023-04-18T03:09:28.132Z,15.07
2023-04-18T03:12:02.306Z,15.82
2023-04-18T03:16:59.634Z,15.75
2023-04-18T03:19:32.093Z,16.13
2023-04-18T03:22:04.778Z,16.27
2023-04-18T03:24:33.800Z,15.65
2023-04-18T03:27:03.572Z,17.65
2023-04-18T03:29:31.103Z,17.80
2023-04-18T03:31:58.619Z,17.25
2023-04-18T03:34:26.141Z,17.80
2023-04-18T03:36:54.525Z,18.20
2023-04-18T03:39:22.196Z,17.70
2023-04-18T03:41:49.939Z,17.58
2023-04-18T03:44:18.092Z,17.90
2023-04-18T03:46:47.156Z,16.43
2023-04-18T03:49:14.525Z,17.75
2023-04-18T03:51:44.157Z,17.90
2023-04-18T03:56:38.865Z,16.52
2023-04-18T03:59:06.263Z,17.90
2023-04-18T04:01:33.935Z,18.33
2023-04-18T04:04:03.160Z,17.33
2023-04-18T04:06:32.111Z,17.67
2023-04-18T04:09:01.495Z,17.83
2023-04-18T04:11:29.411Z,17.40
2023-04-18T04:13:57.014Z,17.58
2023-04-18T04:16:36.758Z,17.65
2023-04-18T04:19:05.026Z,17.42
2023-04-18T04:21:39.507Z,17.75
2023-04-18T04:24:10.590Z,18.02
2023-04-18T04:26:43.293Z,18.38
2023-04-18T04:29:16.340Z,17.48
2023-04-18T04:31:45.250Z,18.10
2023-04-18T04:34:14.614Z,18.48
2023-04-18T04:36:43.121Z,18.38
2023-04-18T04:39:12.876Z,17.65
2023-04-18T04:42:12.265Z,18.45
2023-04-18T04:44:50.442Z,18.27
2023-04-18T04:47:17.625Z,18.27
2023-04-18T04:49:45.212Z,18.85
2023-04-18T04:52:12.240Z,18.15
2023-04-18T04:54:39.831Z,18.55
2023-04-18T04:57:09.841Z,18.63
2023-04-18T04:59:37.193Z,19.90
2023-04-18T05:02:05.993Z,18.15
2023-04-18T05:04:33.520Z,18.85
2023-04-18T05:07:00.556Z,20.05
2023-04-18T05:09:27.913Z,18.77
2023-04-18T05:11:54.917Z,19.73
2023-04-18T05:14:22.661Z,19.65
2023-04-18T05:16:49.782Z,19.55
2023-04-18T05:19:17.182Z,17.05
2023-04-18T05:21:44.152Z,19.02
2023-04-18T05:24:11.600Z,17.10
2023-04-18T05:26:38.725Z,17.85
2023-04-18T05:29:06.025Z,18.52
2023-04-18T05:31:33.187Z,17.90
2023-04-18T05:34:00.588Z,17.63
2023-04-18T05:36:27.763Z,18.25
2023-04-18T05:38:55.032Z,17.98
2023-04-18T05:41:22.924Z,16.88
2023-04-18T05:44:01.825Z,16.33
2023-04-18T05:46:32.585Z,15.93
2023-04-18T05:49:00.058Z,16.65
2023-04-18T05:51:28.662Z,15.80
2023-04-18T05:53:56.030Z,16.10
2023-04-18T05:56:23.046Z,17.52
2023-04-18T05:58:51.344Z,15.57
2023-04-18T06:01:18.714Z,15.20
2023-04-18T06:03:47.211Z,15.48
2023-04-18T06:06:15.505Z,14.65
2023-04-18T06:08:43.272Z,15.80
2023-04-18T06:11:10.608Z,15.55
2023-04-18T06:13:37.930Z,16.13
2023-04-18T06:16:05.392Z,16.63
2023-04-18T06:18:32.927Z,15.75
2023-04-18T06:21:00.287Z,15.23
2023-04-18T06:23:27.571Z,16.65
2023-04-18T06:25:54.887Z,15.75
2023-04-18T06:28:22.370Z,14.85
2023-04-18T06:30:49.361Z,14.70
2023-04-18T06:33:16.712Z,14.98
2023-04-18T06:35:43.793Z,15.50
2023-04-18T06:38:11.603Z,14.55
2023-04-18T06:40:38.554Z,14.38
2023-04-18T06:43:05.991Z,14.15
2023-04-18T06:45:33.191Z,13.50
2023-04-18T06:48:03.306Z,13.43
2023-04-18T06:50:30.584Z,13.65
2023-04-18T06:52:58.099Z,12.38
2023-04-18T06:55:25.060Z,13.05
2023-04-18T06:57:52.945Z,12.77
2023-04-18T07:00:20.215Z,13.50
2023-04-18T07:02:48.209Z,12.95
2023-04-18T07:05:15.352Z,14.93
2023-04-18T07:07:42.695Z,14.80
2023-04-18T07:10:11.424Z,14.32
2023-04-18T07:12:38.794Z,12.43
2023-04-18T07:15:06.409Z,13.20
2023-04-18T07:17:33.924Z,12.55
2023-04-18T07:20:01.349Z,13.57
2023-04-18T07:22:28.911Z,13.63
2023-04-18T07:24:55.870Z,13.02
2023-04-18T07:27:23.188Z,13.30
2023-04-18T07:29:50.303Z,13.05
2023-04-18T07:32:17.780Z,13.20
2023-04-18T07:34:45.061Z,13.18
2023-04-18T07:37:14.844Z,13.38
2023-04-18T07:39:42.372Z,13.40
2023-04-18T07:42:11.352Z,12.75
2023-04-18T07:44:38.442Z,14.70
2023-04-18T07:47:11.138Z,13.82
2023-04-18T07:49:38.706Z,13.43
2023-04-18T07:52:06.041Z,12.65
2023-04-18T07:54:33.048Z,11.65
2023-04-18T07:57:00.876Z,13.27
2023-04-18T07:59:29.689Z,12.27
2023-04-18T08:01:57.024Z,13.70
2023-04-18T08:04:24.368Z,12.88
2023-04-18T08:06:52.857Z,13.18
2023-04-18T08:09:20.677Z,13.35
2023-04-18T08:11:48.015Z,13.23
2023-04-18T08:14:15.034Z,13.20
2023-04-18T08:16:42.469Z,13.13
2023-04-18T08:19:09.638Z,12.68
2023-04-18T08:21:37.040Z,12.80
2023-04-18T08:24:05.054Z,13.32
2023-04-18T08:26:32.408Z,13.52
2023-04-18T08:28:59.364Z,11.77
2023-04-18T08:31:27.588Z,14.05
2023-04-18T08:33:54.641Z,14.32
2023-04-18T08:36:22.578Z,13.73
2023-04-18T08:38:49.577Z,14.02
2023-04-18T08:41:20.851Z,14.02
2023-04-18T08:43:48.952Z,12.25
2023-04-18T08:46:17.276Z,12.40
2023-04-18T08:48:44.589Z,13.63
2023-04-18T08:51:12.259Z,14.05
2023-04-18T08:53:39.776Z,14.02
2023-04-18T08:56:10.351Z,13.98
2023-04-18T08:58:37.509Z,13.30
2023-04-18T09:01:05.148Z,13.27
2023-04-18T09:03:43.184Z,13.20
2023-04-18T09:06:19.284Z,13.18
2023-04-18T09:08:58.698Z,13.30
2023-04-18T09:11:29.111Z,13.57
2023-04-18T09:13:58.713Z,12.88
2023-04-18T09:16:27.778Z,13.63
2023-04-18T09:19:18.458Z,14.50
2023-04-18T09:21:47.201Z,15.45
2023-04-18T09:24:27.082Z,15.90
2023-04-18T09:26:56.865Z,16.40
2023-04-18T09:29:43.445Z,16.17
2023-04-18T09:32:11.208Z,14.50
2023-04-18T09:34:42.509Z,14.07
2023-04-18T09:37:11.962Z,13.63
2023-04-18T09:39:43.680Z,13.20
2023-04-18T09:42:11.484Z,12.95
2023-04-18T09:44:57.331Z,13.43
2023-04-18T09:47:24.670Z,14.60
2023-04-18T09:49:52.517Z,14.57
2023-04-18T09:52:21.067Z,14.68
2023-04-18T09:54:49.672Z,13.18
2023-04-18T09:57:18.016Z,13.85
2023-04-18T09:59:51.704Z,12.05
2023-04-18T10:02:23.039Z,13.20
2023-04-18T10:04:52.425Z,12.40
2023-04-18T10:07:20.874Z,12.30
2023-04-18T10:09:49.253Z,11.05
2023-04-18T10:12:18.484Z,11.15
2023-04-18T10:14:46.089Z,11.38
2023-04-18T10:17:14.843Z,10.73
2023-04-18T10:19:44.352Z,11.43
2023-04-18T10:24:49.852Z,11.93
2023-04-18T10:27:18.433Z,11.90
2023-04-18T10:29:54.538Z,11.95
2023-04-18T10:32:25.004Z,12.98
2023-04-18T10:34:54.869Z,13.15
2023-04-18T10:37:22.213Z,12.85
2023-04-18T10:40:00.260Z,12.05
2023-04-18T10:42:51.879Z,12.57
2023-04-18T10:45:23.341Z,13.32
2023-04-18T10:47:51.234Z,12.38
2023-04-18T10:50:18.221Z,13.65
2023-04-18T10:52:45.723Z,13.38
2023-04-18T10:55:17.438Z,12.50
2023-04-18T10:57:45.824Z,11.38
2023-04-18T11:00:18.589Z,11.50
2023-04-18T11:02:56.011Z,12.15
2023-04-18T11:05:27.033Z,11.57
2023-04-18T11:07:55.393Z,11.55
2023-04-18T11:10:25.535Z,11.55
2023-04-18T11:12:54.647Z,11.57
2023-04-18T11:15:23.842Z,12.23
2023-04-18T11:18:02.511Z,11.18
2023-04-18T11:20:37.296Z,11.90
2023-04-18T11:23:04.638Z,12.57
2023-04-18T11:25:36.595Z,12.20
2023-04-18T11:28:04.613Z,12.32
2023-04-18T11:30:38.711Z,12.55
2023-04-18T11:33:08.374Z,12.57
2023-04-18T11:35:40.350Z,12.57
2023-04-18T11:38:08.614Z,13.45
2023-04-18T11:40:36.942Z,12.57
2023-04-18T11:43:06.493Z,13.07
2023-04-18T11:45:34.136Z,13.48
2023-04-18T11:48:01.653Z,12.48
2023-04-18T11:50:28.975Z,12.75
2023-04-18T11:52:56.468Z,11.90
2023-04-18T11:55:25.221Z,12.57
2023-04-18T11:57:59.307Z,11.77
2023-04-18T12:00:37.250Z,13.18
2023-04-18T12:03:08.484Z,13.32
2023-04-18T12:05:38.305Z,13.00
2023-04-18T12:08:08.083Z,12.50
2023-04-18T12:10:36.071Z,13.17
2023-04-18T12:13:08.088Z,12.73
2023-04-18T12:15:43.505Z,13.05
2023-04-18T12:18:12.903Z,14.23
2023-04-18T12:20:49.872Z,13.70
2023-04-18T12:23:32.476Z,13.15
2023-04-18T12:26:07.392Z,12.93
2023-04-18T12:28:35.587Z,14.18
2023-04-18T12:31:05.902Z,14.82
2023-04-18T12:33:34.148Z,14.00
2023-04-18T12:36:01.314Z,14.45
2023-04-18T12:38:28.752Z,14.48
2023-04-18T12:40:55.918Z,14.55
2023-04-18T12:43:23.324Z,13.75
2023-04-18T12:45:50.445Z,12.95
2023-04-18T12:48:18.023Z,13.13
2023-04-18T12:50:45.055Z,13.75
2023-04-18T12:53:12.365Z,13.35
2023-04-18T12:55:39.404Z,14.13
2023-04-18T12:58:06.744Z,15.77
2023-04-18T13:00:33.884Z,13.10
2023-04-18T13:03:01.407Z,11.98
2023-04-18T13:05:33.001Z,12.23
2023-04-18T13:10:32.223Z,12.00
2023-04-18T13:12:59.630Z,11.48
2023-04-18T13:15:27.585Z,11.98
2023-04-18T13:17:56.381Z,12.05
2023-04-18T13:20:23.396Z,13.57
2023-04-18T13:22:50.765Z,14.07
2023-04-18T13:25:17.809Z,11.55
2023-04-18T13:27:45.917Z,11.95
2023-04-18T13:30:13.505Z,12.05
2023-04-18T13:32:41.237Z,11.40
2023-04-18T13:35:11.037Z,11.40
2023-04-18T13:37:39.453Z,11.70
2023-04-18T13:40:07.991Z,11.65
2023-04-18T13:42:38.771Z,11.43
2023-04-18T13:45:06.245Z,10.93
2023-04-18T13:47:33.691Z,10.68
2023-04-18T13:50:01.086Z,10.65
2023-04-18T13:52:28.770Z,11.43
2023-04-18T13:54:55.811Z,10.35
2023-04-18T13:57:23.438Z,10.73
2023-04-18T13:59:50.453Z,11.52
2023-04-18T14:02:18.033Z,11.07
2023-04-18T14:04:46.532Z,10.43
2023-04-18T14:07:14.046Z,10.73
2023-04-18T14:09:40.974Z,10.85
2023-04-18T14:12:08.399Z,9.40
2023-04-18T14:14:35.463Z,10.27
2023-04-18T14:17:02.777Z,10.40
2023-04-18T14:19:29.926Z,10.60
2023-04-18T14:21:57.255Z,11.55
2023-04-18T14:24:24.408Z,10.68
2023-04-18T14:26:51.689Z,10.90
2023-04-18T14:29:18.752Z,10.38
2023-04-18T14:31:46.307Z,10.10
2023-04-18T14:34:13.590Z,11.00
2023-04-18T14:36:41.140Z,9.43
2023-04-18T14:39:08.427Z,9.75
2023-04-18T14:41:35.807Z,10.15
2023-04-18T14:44:04.064Z,9.15
2023-04-18T14:46:31.546Z,10.02
2023-04-18T14:48:59.976Z,10.43
2023-04-18T14:51:27.701Z,8.60
2023-04-18T14:53:55.709Z,8.70
2023-04-18T14:56:24.248Z,9.75
2023-04-18T14:58:51.550Z,10.10
2023-04-18T15:01:19.186Z,10.15
2023-04-18T15:03:46.784Z,10.15
2023-04-18T15:06:14.221Z,9.15
2023-04-18T15:08:44.071Z,9.35
2023-04-18T15:11:11.436Z,9.00
2023-04-18T15:13:38.748Z,9.15
2023-04-18T15:16:06.902Z,9.25
2023-04-18T15:18:34.319Z,9.10
2023-04-18T15:21:02.114Z,8.43
2023-04-18T15:23:29.673Z,8.98
2023-04-18T15:25:57.657Z,8.80
2023-04-18T15:28:25.799Z,8.13
2023-04-18T15:30:53.543Z,8.18
2023-04-18T15:33:21.219Z,7.85
2023-04-18T15:35:48.893Z,7.40
2023-04-18T15:38:16.487Z,8.35
2023-04-18T15:40:44.678Z,7.75
2023-04-18T15:43:13.807Z,7.50
2023-04-18T15:45:41.458Z,8.40
2023-04-18T15:48:10.326Z,8.13
2023-04-18T15:50:39.090Z,7.65
2023-04-18T15:53:06.153Z,7.35
2023-04-18T15:55:34.440Z,7.32
2023-04-18T15:58:01.756Z,7.35
2023-04-18T16:00:29.299Z,7.93
2023-04-18T16:02:56.621Z,7.55
2023-04-18T16:05:24.209Z,7.20
2023-04-18T16:07:53.763Z,6.25
2023-04-18T16:12:48.442Z,6.13
2023-04-18T16:15:16.068Z,5.57
2023-04-18T16:17:43.208Z,5.22
2023-04-18T16:20:10.841Z,5.05
2023-04-18T16:22:37.905Z,4.88
2023-04-18T16:25:06.172Z,5.55
2023-04-18T16:27:33.526Z,4.60
2023-04-18T16:30:01.157Z,4.05
2023-04-18T16:32:28.716Z,3.58
2023-04-18T16:34:56.207Z,4.05
2023-04-18T16:37:23.569Z,3.95
2023-04-18T16:39:51.129Z,3.67
2023-04-18T16:42:18.281Z,3.47
2023-04-18T16:44:45.856Z,3.22
2023-04-18T16:47:12.978Z,3.10
2023-04-18T16:49:41.401Z,3.05
2023-04-18T16:52:08.615Z,3.03
2023-04-18T16:54:36.039Z,5.28
2023-04-18T16:57:03.414Z,3.17
2023-04-18T16:59:31.188Z,3.00
2023-04-18T17:01:59.280Z,2.88
2023-04-18T17:04:27.320Z,2.67
2023-04-18T17:06:57.668Z,2.85
2023-04-18T17:09:25.361Z,3.45
2023-04-18T17:11:52.640Z,2.60
2023-04-18T17:14:20.823Z,2.85
2023-04-18T17:16:48.848Z,2.88
2023-04-18T17:19:17.620Z,3.45
2023-04-18T17:21:45.023Z,2.80
2023-04-18T17:24:12.649Z,3.53
2023-04-18T17:26:39.753Z,3.15
2023-04-18T17:29:07.738Z,3.42
2023-04-18T17:31:34.990Z,3.53
2023-04-18T17:34:03.798Z,3.38
2023-04-18T17:36:31.053Z,3.05
2023-04-18T17:39:08.304Z,3.25
2023-04-18T17:41:39.180Z,3.20
2023-04-18T17:44:09.057Z,3.53
2023-04-18T17:46:37.387Z,3.80
2023-04-18T17:49:05.888Z,3.95
2023-04-18T17:51:33.774Z,4.15
2023-04-18T17:54:02.678Z,3.30
2023-04-18T17:56:36.728Z,3.83
2023-04-18T17:59:04.803Z,3.97
2023-04-18T18:01:33.392Z,3.65
2023-04-18T18:04:06.037Z,4.10
2023-04-18T18:06:33.911Z,3.90
2023-04-18T18:09:01.797Z,3.70
2023-04-18T18:11:29.595Z,3.60
2023-04-18T18:14:04.959Z,3.60
2023-04-18T18:16:42.101Z,4.07
2023-04-18T18:19:15.493Z,4.43
2023-04-18T18:21:43.754Z,4.32
2023-04-18T18:24:13.846Z,4.20
2023-04-18T18:26:42.876Z,4.32
2023-04-18T18:29:12.701Z,4.30
2023-04-18T18:31:42.093Z,4.15
2023-04-18T18:34:15.104Z,3.78
2023-04-18T18:36:42.907Z,3.88
2023-04-18T18:39:22.669Z,3.50
2023-04-18T18:41:57.305Z,4.68
2023-04-18T18:44:25.801Z,3.53
2023-04-18T18:46:54.684Z,3.78
2023-04-18T18:49:27.179Z,3.85
2023-04-18T18:51:55.478Z,3.80
2023-04-18T18:54:32.605Z,3.15
2023-04-18T18:57:03.733Z,3.88
2023-04-18T18:59:35.517Z,3.60
2023-04-18T19:02:04.754Z,3.67
2023-04-18T19:04:34.012Z,3.17
2023-04-18T19:07:02.411Z,3.87
2023-04-18T19:09:35.925Z,2.95
2023-04-18T19:12:05.653Z,3.10
2023-04-18T19:14:37.838Z,3.38
2023-04-18T19:17:07.585Z,3.45
2023-04-18T19:19:44.804Z,3.10
2023-04-18T19:22:15.987Z,4.07
2023-04-18T19:24:51.959Z,3.78
2023-04-18T19:27:29.509Z,3.05
2023-04-18T19:29:58.312Z,3.30
2023-04-18T19:32:27.621Z,3.47
2023-04-18T19:34:59.203Z,3.33
2023-04-18T19:37:28.364Z,3.58
2023-04-18T19:39:57.057Z,3.30
2023-04-18T19:42:28.504Z,3.22
2023-04-18T19:44:57.733Z,3.97
2023-04-18T19:47:27.621Z,3.50
2023-04-18T19:50:02.159Z,3.53
2023-04-18T19:52:33.061Z,3.30
2023-04-18T19:55:02.148Z,3.63
2023-04-18T19:57:39.235Z,3.63
2023-04-18T20:00:13.330Z,3.58
2023-04-18T20:02:47.498Z,3.05
2023-04-18T20:05:30.037Z,3.45
2023-04-18T20:08:03.563Z,3.22
2023-04-18T20:10:35.052Z,3.67
2023-04-18T20:13:03.562Z,3.30
2023-04-18T20:15:37.427Z,3.30
2023-04-18T20:18:07.261Z,3.88
2023-04-18T20:20:38.288Z,3.58
2023-04-18T20:23:09.056Z,3.40
2023-04-18T20:25:37.094Z,3.35
2023-04-18T20:28:05.069Z,3.30
2023-04-18T20:30:33.230Z,3.60
2023-04-18T20:33:06.542Z,3.65
2023-04-18T20:35:38.388Z,3.47
2023-04-18T20:38:07.357Z,3.30
2023-04-18T20:40:39.065Z,2.92
2023-04-18T20:43:09.265Z,4.35
2023-04-18T20:45:45.263Z,3.50
2023-04-18T20:48:12.762Z,3.33
2023-04-18T20:50:43.384Z,3.45
2023-04-18T20:53:11.525Z,4.20
2023-04-18T20:55:50.901Z,3.92
2023-04-18T20:58:20.369Z,3.42
2023-04-18T21:00:52.333Z,3.38
2023-04-18T21:03:22.615Z,3.30
2023-04-18T21:05:59.019Z,4.15
2023-04-18T21:08:31.776Z,3.40
2023-04-18T21:10:59.607Z,3.20
2023-04-18T21:13:34.461Z,3.47
2023-04-18T21:16:03.696Z,3.65
2023-04-18T21:18:34.642Z,3.03
2023-04-18T21:21:07.514Z,3.63
2023-04-18T21:23:45.867Z,4.18
2023-04-18T21:26:16.012Z,3.63
2023-04-18T21:31:26.480Z,3.50
2023-04-18T21:33:58.725Z,4.20
2023-04-18T21:36:33.369Z,4.53
2023-04-18T21:39:01.560Z,3.70
2023-04-18T21:41:36.962Z,3.50
2023-04-18T21:44:07.277Z,4.32
2023-04-18T21:46:35.268Z,3.75
2023-04-18T21:49:03.184Z,3.95
2023-04-18T21:51:32.315Z,3.83
2023-04-18T21:53:59.710Z,4.43
2023-04-18T21:56:28.464Z,4.00
2023-04-18T21:58:55.865Z,4.35
2023-04-18T22:01:24.838Z,4.00
2023-04-18T22:03:54.032Z,4.07
2023-04-18T22:06:24.506Z,3.85
2023-04-18T22:08:56.042Z,4.55
2023-04-18T22:11:25.104Z,3.55
2023-04-18T22:13:56.256Z,3.90
2023-04-18T22:16:29.020Z,3.17
2023-04-18T22:18:59.543Z,3.75
2023-04-18T22:21:27.531Z,3.88
2023-04-18T22:23:54.662Z,3.58
2023-04-18T22:26:27.132Z,3.65
2023-04-18T22:28:58.148Z,3.65
2023-04-18T22:31:28.176Z,3.55
2023-04-18T22:33:57.560Z,3.85
2023-04-18T22:36:30.566Z,3.95
2023-04-18T22:39:00.278Z,3.40
2023-04-18T22:41:27.939Z,3.63
2023-04-18T22:44:03.997Z,3.53
2023-04-18T22:46:32.903Z,3.63
2023-04-18T22:49:05.403Z,3.35
2023-04-18T22:51:34.439Z,3.83
2023-04-18T22:54:04.272Z,3.10
2023-04-18T22:56:42.436Z,2.92
2023-04-18T22:59:15.492Z,3.72
2023-04-18T23:01:44.656Z,3.50
2023-04-18T23:04:14.620Z,3.83
2023-04-18T23:06:50.976Z,3.13
2023-04-18T23:09:19.652Z,3.85
2023-04-18T23:11:49.914Z,3.33
2023-04-18T23:14:20.258Z,3.10
2023-04-18T23:16:52.341Z,2.92
2023-04-18T23:19:33.076Z,2.97
2023-04-18T23:22:08.744Z,2.80
2023-04-18T23:24:37.046Z,3.47
2023-04-18T23:27:04.565Z,3.58
2023-04-18T23:29:39.015Z,3.15
2023-04-18T23:32:09.265Z,2.78
2023-04-18T23:34:39.422Z,3.33
2023-04-18T23:37:13.428Z,3.22
2023-04-18T23:39:47.662Z,3.88
2023-04-18T23:42:17.587Z,3.45
2023-04-18T23:44:48.607Z,3.28
2023-04-18T23:47:19.087Z,3.25
2023-04-18T23:49:48.226Z,2.85
2023-04-18T23:52:20.167Z,3.00
2023-04-18T23:54:57.637Z,2.85
2023-04-18T23:57:27.902Z,3.45
